Red Lodge, MT

9:32 PM MDT on October 01, 2014 (GMT -0600)
4.5 miles west of Red Lodge,Mt | Change Station
CLOSE
Current Station
Personal Weather Station
Location: Red Lodge, MT
Elevation: 5453 ft
Nearby Weather Stations

Elev 5453 ft 45.22 °N, 109.30 °W | Updated 4 seconds ago

Clear
Clear
35.7 °F
Feels Like 36 °F
N
0.0
Wind Variable Wind from SW
Gusts 2.0 mph

Today
High -- | Low -- °F
--% Chance of Precip.
Yesterday
High -- | Low -- °F
Precip. -- in
7:15 AM 6:57 PM
First Quarter, 54% visible
Pressure 29.83 in
Visibility 10.0 miles
Clouds Mostly Cloudy 4200 ft
Mostly Cloudy 5500 ft
Overcast 9500 ft
Windchill 36 °F
Dew Point 30 °F
Humidity 81%
Rainfall 0.00 in
Snow Depth 0 in , 0 in , 0 in
UV 0 out of 12
Pollen 3.00 out of 12
Air Quality Not available.
Flu Activity Not available.
METAR KCOD 010335Z AUTO 00000KT 10SM BKN042 BKN055 OVC095 10/07 A2983 RMK AO1

More Conditions Fewer Conditions

Pressure 29.83 in
Visibility 10.0 miles
Clouds Mostly Cloudy 4200 ft
Mostly Cloudy 5500 ft
Overcast 9500 ft
Windchill 36 °F
Dew Point 30 °F
Humidity 81%
Rainfall 0.00 in
Snow Depth 0 in , 0 in , 0 in
UV 0 out of 12
Pollen 3.00 out of 12
Air Quality Not available.
Flu Activity Not available.
METAR KCOD 010335Z AUTO 00000KT 10SM BKN042 BKN055 OVC095 10/07 A2983 RMK AO1

More Conditions Fewer Conditions

10-Day Weather Forecast

Almanac

Astronomy

Oct. 01, 2014 Rise Set
Actual Time 7:15 AM MDT 6:57 PM MDT
Civil Twilight 6:46 AM MDT 7:26 PM MDT
Nautical Twilight 6:11 AM MDT 8:00 PM MDT
Astronomical Twilight 5:37 AM MDT 8:35 PM MDT
Moon 2:30 PM MDT (10/1) No Moon Set
Length of Visible Light 12h 40m
Length of Day
11h 42m
Tomorrow will be 3m 7s shorter.
First Quarter, 54% of the Moon is Illuminated
Today
First Quarter
Oct 8
Full
Oct 15
Last Quarter
Oct 23
New
Oct 30
First Quarter

Today's Extremes

State Highs State Lows

Community

WunderPhotos

Upload Photos

1,758,162 photos uploaded!

Nearby

Snow Depth

Station Depth Elevation
Bloody Dick 0 in 7550 ft
Whiskey Creek 0 in 6800 ft
Flattop Mountain 0 in 6300 ft
White Mill 0 in 8700 ft
Bisson Creek 0 in 4925 ft

Earthquake Activity

City Distance Mag. Time & Date
No recent earthquake activity has been reported nearby.
Minimum magnitude displayed is 2.5.

Coastal Water Temperatures

Place Temperature
No Stations Reporting

Nearby Weather Stations